createdAt,value
2023-02-16T00:01:01.497Z,6.63
2023-02-16T00:03:28.252Z,6.61
2023-02-16T00:05:54.667Z,6.61
2023-02-16T00:08:21.137Z,6.60
2023-02-16T00:11:07.546Z,6.59
2023-02-16T00:13:52.702Z,6.59
2023-02-16T00:16:21.830Z,6.57
2023-02-16T00:18:48.777Z,6.54
2023-02-16T00:21:16.002Z,6.54
2023-02-16T00:23:42.661Z,6.54
2023-02-16T00:26:24.185Z,6.53
2023-02-16T00:28:53.976Z,6.52
2023-02-16T00:31:22.740Z,6.51
2023-02-16T00:33:50.012Z,6.50
2023-02-16T00:36:16.443Z,6.51
2023-02-16T00:38:42.917Z,6.52
2023-02-16T00:41:39.868Z,6.53
2023-02-16T00:44:29.300Z,6.51
2023-02-16T00:46:55.813Z,6.52
2023-02-16T00:49:22.291Z,6.52
2023-02-16T00:51:49.890Z,6.50
2023-02-16T00:54:16.400Z,6.48
2023-02-16T00:56:45.187Z,6.45
2023-02-16T00:59:18.159Z,6.45
2023-02-16T01:01:44.750Z,6.44
2023-02-16T01:04:18.963Z,6.43
2023-02-16T01:07:03.997Z,6.43
2023-02-16T01:09:48.870Z,6.42
2023-02-16T01:12:19.564Z,6.43
2023-02-16T01:14:49.097Z,6.43
2023-02-16T01:17:15.488Z,6.45
2023-02-16T01:19:41.947Z,6.44
2023-02-16T01:22:08.272Z,6.43
2023-02-16T01:24:34.659Z,6.39
2023-02-16T01:27:01.064Z,6.39
2023-02-16T01:29:27.535Z,6.40
2023-02-16T01:31:54.995Z,6.40
2023-02-16T01:34:21.605Z,6.43
2023-02-16T01:36:49.521Z,6.40
2023-02-16T01:39:19.107Z,6.38
2023-02-16T01:42:07.366Z,6.38
2023-02-16T01:44:40.775Z,6.35
2023-02-16T01:47:19.188Z,6.34
2023-02-16T01:49:45.549Z,6.31
2023-02-16T01:52:18.573Z,6.30
2023-02-16T01:54:55.877Z,6.29
2023-02-16T01:57:41.451Z,6.32
2023-02-16T02:00:21.452Z,6.32
2023-02-16T02:03:16.203Z,6.34
2023-02-16T02:05:42.874Z,6.34
2023-02-16T02:08:16.708Z,6.32
2023-02-16T02:11:18.134Z,6.32
2023-02-16T02:14:06.242Z,6.32
2023-02-16T02:16:32.813Z,6.34
2023-02-16T02:18:59.214Z,6.34
2023-02-16T02:22:02.914Z,6.32
2023-02-16T02:24:57.236Z,6.33
2023-02-16T02:28:08.688Z,6.33
2023-02-16T02:31:06.443Z,6.34
2023-02-16T02:33:44.437Z,6.34
2023-02-16T02:37:01.529Z,6.35
2023-02-16T02:39:58.449Z,6.35
2023-02-16T02:42:41.104Z,6.32
2023-02-16T02:45:13.915Z,6.35
2023-02-16T02:47:43.065Z,6.32
2023-02-16T02:50:40.434Z,6.33
2023-02-16T02:53:12.464Z,6.31
2023-02-16T02:56:27.685Z,6.30
2023-02-16T02:59:18.125Z,6.30
2023-02-16T03:01:51.592Z,6.33
2023-02-16T03:04:22.402Z,6.32
2023-02-16T03:06:52.581Z,6.33
2023-02-16T03:09:20.724Z,6.34
2023-02-16T03:12:08.948Z,6.34
2023-02-16T03:14:41.462Z,6.35
2023-02-16T03:17:30.027Z,6.34
2023-02-16T03:20:16.918Z,6.34
2023-02-16T03:23:04.361Z,6.36
2023-02-16T03:25:53.013Z,6.37
2023-02-16T03:28:41.715Z,6.36
2023-02-16T03:31:11.993Z,6.35
2023-02-16T03:33:39.306Z,6.36
2023-02-16T03:36:07.063Z,6.36
2023-02-16T03:38:34.157Z,6.36
2023-02-16T03:41:00.945Z,6.35
2023-02-16T03:43:28.841Z,6.35
2023-02-16T03:45:55.388Z,6.36
2023-02-16T03:48:21.929Z,6.37
2023-02-16T03:50:48.292Z,6.36
2023-02-16T03:53:16.477Z,6.36
2023-02-16T03:55:46.581Z,6.36
2023-02-16T03:58:16.588Z,6.36
2023-02-16T04:00:43.051Z,6.37
2023-02-16T04:03:10.172Z,6.37
2023-02-16T04:05:37.814Z,6.36
2023-02-16T04:08:05.323Z,6.35
2023-02-16T04:10:32.028Z,6.34
2023-02-16T04:12:58.532Z,6.34
2023-02-16T04:15:27.852Z,6.33
2023-02-16T04:17:54.968Z,6.35
2023-02-16T04:20:24.079Z,6.35
2023-02-16T04:22:51.343Z,6.36
2023-02-16T04:25:18.842Z,6.36
2023-02-16T04:27:46.006Z,6.35
2023-02-16T04:30:15.484Z,6.35
2023-02-16T04:32:41.953Z,6.38
2023-02-16T04:35:08.895Z,6.37
2023-02-16T04:37:35.527Z,6.37
2023-02-16T04:40:02.476Z,6.36
2023-02-16T04:42:28.915Z,6.34
2023-02-16T04:44:55.306Z,6.34
2023-02-16T04:47:22.867Z,6.36
2023-02-16T04:49:50.291Z,6.37
2023-02-16T04:52:16.962Z,6.37
2023-02-16T04:54:43.645Z,6.37
2023-02-16T04:57:10.936Z,6.38
2023-02-16T04:59:37.723Z,6.39
2023-02-16T05:02:04.393Z,6.38
2023-02-16T05:04:30.754Z,6.38
2023-02-16T05:06:57.109Z,6.38
2023-02-16T05:09:23.602Z,6.37
2023-02-16T05:12:08.452Z,6.37
2023-02-16T05:14:45.412Z,6.36
2023-02-16T05:17:20.750Z,6.37
2023-02-16T05:19:50.089Z,6.38
2023-02-16T05:22:17.576Z,6.38
2023-02-16T05:24:44.605Z,6.39
2023-02-16T05:27:30.393Z,6.39
2023-02-16T05:29:58.064Z,6.39
2023-02-16T05:32:25.151Z,6.38
2023-02-16T05:34:51.577Z,6.37
2023-02-16T05:37:18.561Z,6.38
2023-02-16T05:39:45.465Z,6.34
2023-02-16T05:42:12.180Z,6.34
2023-02-16T05:44:38.678Z,6.34
2023-02-16T05:47:05.165Z,6.32
2023-02-16T05:49:31.538Z,6.35
2023-02-16T05:51:57.914Z,6.35
2023-02-16T05:54:24.368Z,6.35
2023-02-16T05:56:52.808Z,6.37
2023-02-16T05:59:19.322Z,6.38
2023-02-16T06:01:50.399Z,6.36
2023-02-16T06:04:17.501Z,6.37
2023-02-16T06:06:44.177Z,6.38
2023-02-16T06:09:10.949Z,6.39
2023-02-16T06:11:37.438Z,6.39
2023-02-16T06:14:10.351Z,6.38
2023-02-16T06:16:39.223Z,6.38
2023-02-16T06:19:06.616Z,6.38
2023-02-16T06:21:33.607Z,6.36
2023-02-16T06:24:00.137Z,6.36
2023-02-16T06:26:27.039Z,6.36
2023-02-16T06:28:54.240Z,6.35
2023-02-16T06:31:21.463Z,6.35
2023-02-16T06:33:48.090Z,6.37
2023-02-16T06:36:15.355Z,6.36
2023-02-16T06:38:41.886Z,6.37
2023-02-16T06:41:08.318Z,6.37
2023-02-16T06:43:34.859Z,6.36
2023-02-16T06:46:01.470Z,6.38
2023-02-16T06:48:27.833Z,6.38
2023-02-16T06:50:54.354Z,6.36
2023-02-16T06:53:20.836Z,6.36
2023-02-16T06:55:47.602Z,6.37
2023-02-16T06:58:13.976Z,6.37
2023-02-16T07:00:40.444Z,6.36
2023-02-16T07:03:06.869Z,6.37
2023-02-16T07:05:33.309Z,6.35
2023-02-16T07:07:59.662Z,6.38
2023-02-16T07:10:26.129Z,6.37
2023-02-16T07:12:52.483Z,6.36
2023-02-16T07:15:18.892Z,6.36
2023-02-16T07:17:45.329Z,6.36
2023-02-16T07:20:12.778Z,6.37
2023-02-16T07:22:39.335Z,6.41
2023-02-16T07:25:06.106Z,6.40
2023-02-16T07:27:32.716Z,6.42
2023-02-16T07:29:59.156Z,6.40
2023-02-16T07:32:25.604Z,6.42
2023-02-16T07:34:51.958Z,6.40
2023-02-16T07:37:18.295Z,6.43
2023-02-16T07:39:44.619Z,6.42
2023-02-16T07:42:10.965Z,6.44
2023-02-16T07:44:37.341Z,6.44
2023-02-16T07:47:03.734Z,6.44
2023-02-16T07:49:30.109Z,6.44
2023-02-16T07:51:56.523Z,6.44
2023-02-16T07:54:22.894Z,6.46
2023-02-16T07:56:49.256Z,6.46
2023-02-16T07:59:16.982Z,6.48
2023-02-16T08:01:43.377Z,6.47
2023-02-16T08:04:09.878Z,6.51
2023-02-16T08:06:36.277Z,6.51
2023-02-16T08:09:03.070Z,6.52
2023-02-16T08:11:29.609Z,6.54
2023-02-16T08:13:56.017Z,6.54
2023-02-16T08:16:25.067Z,6.56
2023-02-16T08:18:52.605Z,6.56
2023-02-16T08:21:23.634Z,6.57
2023-02-16T08:24:01.746Z,6.59
2023-02-16T08:26:32.616Z,6.59
2023-02-16T08:28:59.476Z,6.61
2023-02-16T08:31:29.874Z,6.62
2023-02-16T08:33:59.258Z,6.63
2023-02-16T08:36:36.768Z,6.65
2023-02-16T08:39:07.739Z,6.64
2023-02-16T08:41:36.243Z,6.65
2023-02-16T08:44:04.176Z,6.66
2023-02-16T08:46:32.364Z,6.66
2023-02-16T08:49:00.279Z,6.66
2023-02-16T08:51:29.293Z,6.66
2023-02-16T08:53:57.770Z,6.67
2023-02-16T08:56:24.285Z,6.67
2023-02-16T08:58:50.713Z,6.68
2023-02-16T09:01:17.201Z,6.69
2023-02-16T09:03:46.006Z,6.69
2023-02-16T09:06:14.951Z,6.72
2023-02-16T09:08:41.973Z,6.70
2023-02-16T09:11:14.758Z,6.70
2023-02-16T09:13:41.954Z,6.69
2023-02-16T09:16:11.458Z,6.69
2023-02-16T09:18:39.289Z,6.67
2023-02-16T09:21:07.674Z,6.67
2023-02-16T09:23:35.599Z,6.67
2023-02-16T09:26:02.643Z,6.66
2023-02-16T09:28:30.723Z,6.65
2023-02-16T09:30:57.186Z,6.63
2023-02-16T09:33:23.592Z,6.59
2023-02-16T09:35:49.965Z,6.59
2023-02-16T09:38:19.202Z,6.60
2023-02-16T09:40:45.657Z,6.61
2023-02-16T09:43:30.824Z,6.63
2023-02-16T09:45:58.900Z,6.63
2023-02-16T09:48:42.565Z,6.65
2023-02-16T09:51:14.659Z,6.63
2023-02-16T09:53:43.921Z,6.64
2023-02-16T09:56:27.486Z,6.63
2023-02-16T09:59:28.964Z,6.62
2023-02-16T10:02:23.256Z,6.61
2023-02-16T10:05:17.241Z,6.61
2023-02-16T10:08:09.446Z,6.63
2023-02-16T10:10:42.694Z,6.63
2023-02-16T10:13:20.390Z,6.61
2023-02-16T10:15:49.636Z,6.60
2023-02-16T10:18:25.225Z,6.59
2023-02-16T10:20:56.642Z,6.61
2023-02-16T10:23:31.438Z,6.63
2023-02-16T10:26:13.610Z,6.64
2023-02-16T10:28:46.825Z,6.64
2023-02-16T10:31:20.919Z,6.66
2023-02-16T10:34:10.068Z,6.69
2023-02-16T10:37:04.889Z,6.72
2023-02-16T10:39:46.907Z,6.75
2023-02-16T10:42:33.897Z,6.77
2023-02-16T10:45:27.174Z,6.78
2023-02-16T10:47:53.989Z,6.80
2023-02-16T10:50:23.686Z,6.82
2023-02-16T10:52:52.351Z,6.86
2023-02-16T10:55:18.729Z,6.88
2023-02-16T10:57:53.405Z,6.90
2023-02-16T11:00:27.918Z,6.93
2023-02-16T11:02:55.003Z,6.94
2023-02-16T11:05:29.086Z,6.96
2023-02-16T11:07:57.854Z,6.97
2023-02-16T11:10:48.941Z,7.00
2023-02-16T11:13:37.335Z,7.03
2023-02-16T11:16:13.764Z,7.06
2023-02-16T11:18:42.660Z,7.07
2023-02-16T11:21:11.165Z,7.09
2023-02-16T11:23:40.920Z,7.10
2023-02-16T11:26:10.255Z,7.10
2023-02-16T11:28:45.920Z,7.13
2023-02-16T11:31:18.476Z,7.15
2023-02-16T11:34:13.641Z,7.17
2023-02-16T11:36:43.763Z,7.20
2023-02-16T11:39:27.907Z,7.22
2023-02-16T11:41:57.523Z,7.23
2023-02-16T11:44:37.906Z,7.26
2023-02-16T11:47:09.604Z,7.28
2023-02-16T11:49:41.159Z,7.27
2023-02-16T11:52:23.127Z,7.29
2023-02-16T11:54:57.526Z,7.30
2023-02-16T11:57:31.081Z,7.34
2023-02-16T11:59:59.504Z,7.36
2023-02-16T12:02:45.036Z,7.38
2023-02-16T12:05:24.703Z,7.43
2023-02-16T12:07:53.733Z,7.46
2023-02-16T12:10:29.065Z,7.49
2023-02-16T12:13:25.049Z,7.51
2023-02-16T12:16:18.024Z,7.55
2023-02-16T12:19:20.746Z,7.59
2023-02-16T12:22:13.491Z,7.62
2023-02-16T12:24:52.415Z,7.65
2023-02-16T12:27:28.299Z,7.69
2023-02-16T12:30:03.406Z,7.76
2023-02-16T12:32:47.817Z,7.82
2023-02-16T12:35:39.232Z,7.87
2023-02-16T12:38:17.716Z,7.94
2023-02-16T12:41:02.478Z,7.99
2023-02-16T12:43:41.540Z,8.00
2023-02-16T12:46:24.080Z,8.03
2023-02-16T12:49:09.857Z,8.08
2023-02-16T12:51:45.713Z,8.11
2023-02-16T12:54:29.473Z,8.15
2023-02-16T12:57:01.654Z,8.20
2023-02-16T12:59:35.025Z,8.21
2023-02-16T13:02:05.725Z,8.25
2023-02-16T13:04:47.741Z,8.30
2023-02-16T13:07:35.385Z,8.32
2023-02-16T13:10:18.321Z,8.34
2023-02-16T13:12:56.303Z,8.38
2023-02-16T13:15:36.976Z,8.39
2023-02-16T13:18:07.145Z,8.36
2023-02-16T13:20:33.794Z,8.37
2023-02-16T13:23:11.457Z,8.36
2023-02-16T13:25:58.041Z,8.35
2023-02-16T13:28:31.284Z,8.38
2023-02-16T13:31:15.482Z,8.38
2023-02-16T13:34:13.203Z,8.39
2023-02-16T13:36:58.057Z,8.45
2023-02-16T13:39:49.237Z,8.47
2023-02-16T13:42:42.431Z,8.48
2023-02-16T13:45:17.427Z,8.50
2023-02-16T13:47:44.000Z,8.54
2023-02-16T13:50:22.383Z,8.57
2023-02-16T13:52:51.934Z,8.59
2023-02-16T13:55:25.751Z,8.63
2023-02-16T13:58:01.638Z,8.67
2023-02-16T14:00:38.568Z,8.71
2023-02-16T14:03:23.061Z,8.79
2023-02-16T14:05:54.506Z,8.79
2023-02-16T14:08:29.523Z,8.85
2023-02-16T14:10:58.929Z,8.89
2023-02-16T14:13:46.908Z,8.88
2023-02-16T14:16:22.425Z,8.88
2023-02-16T14:19:15.570Z,8.90
2023-02-16T14:21:44.683Z,8.94
2023-02-16T14:24:24.942Z,8.93
2023-02-16T14:27:03.030Z,8.93
2023-02-16T14:29:42.616Z,8.95
2023-02-16T14:32:33.767Z,8.95
2023-02-16T14:35:24.762Z,8.97
2023-02-16T14:37:56.877Z,8.99
2023-02-16T14:40:35.371Z,9.01
2023-02-16T14:43:07.851Z,9.03
2023-02-16T14:45:58.754Z,9.07
2023-02-16T14:48:58.996Z,9.09
2023-02-16T14:51:53.121Z,9.12
2023-02-16T14:54:53.410Z,9.12
2023-02-16T14:57:30.412Z,9.13
2023-02-16T15:00:04.446Z,9.10
2023-02-16T15:02:32.864Z,9.14
2023-02-16T15:05:18.714Z,9.12
2023-02-16T15:07:52.083Z,9.15
2023-02-16T15:10:27.703Z,9.18
2023-02-16T15:12:56.472Z,9.18
2023-02-16T15:15:44.790Z,9.19
2023-02-16T15:18:21.150Z,9.16
2023-02-16T15:20:51.079Z,9.14
2023-02-16T15:23:23.625Z,9.14
2023-02-16T15:26:06.138Z,9.14
2023-02-16T15:28:35.775Z,9.10
2023-02-16T15:31:06.728Z,9.06
2023-02-16T15:33:39.437Z,9.03
2023-02-16T15:36:10.601Z,9.01
2023-02-16T15:38:39.774Z,9.00
2023-02-16T15:41:13.078Z,8.99
2023-02-16T15:43:48.212Z,8.97
2023-02-16T15:46:23.806Z,8.95
2023-02-16T15:48:50.846Z,8.94
2023-02-16T15:51:33.898Z,8.91
2023-02-16T15:54:29.061Z,8.88
2023-02-16T15:57:00.601Z,8.85
2023-02-16T15:59:43.605Z,8.85
2023-02-16T16:02:18.518Z,8.84
2023-02-16T16:04:57.497Z,8.83
2023-02-16T16:07:31.932Z,8.81
2023-02-16T16:09:59.994Z,8.81
2023-02-16T16:12:27.630Z,8.81
2023-02-16T16:15:00.661Z,8.79
2023-02-16T16:17:33.293Z,8.77
2023-02-16T16:20:25.667Z,8.76
2023-02-16T16:23:01.866Z,8.75
2023-02-16T16:25:34.125Z,8.76
2023-02-16T16:28:01.723Z,8.74
2023-02-16T16:30:31.382Z,8.73
2023-02-16T16:33:08.949Z,8.73
2023-02-16T16:35:39.706Z,8.71
2023-02-16T16:38:20.349Z,8.71
2023-02-16T16:40:54.883Z,8.71
2023-02-16T16:43:26.913Z,8.69
2023-02-16T16:46:18.846Z,8.68
2023-02-16T16:48:48.386Z,8.67
2023-02-16T16:51:21.269Z,8.66
2023-02-16T16:53:50.875Z,8.67
2023-02-16T16:56:17.558Z,8.67
2023-02-16T16:58:47.620Z,8.67
2023-02-16T17:01:14.030Z,8.67
2023-02-16T17:03:40.478Z,8.67
2023-02-16T17:06:07.055Z,8.67
2023-02-16T17:08:33.544Z,8.67
2023-02-16T17:11:01.633Z,8.66
2023-02-16T17:13:28.103Z,8.66
2023-02-16T17:16:16.723Z,8.66
2023-02-16T17:18:43.127Z,8.68
2023-02-16T17:21:12.813Z,8.67
2023-02-16T17:23:45.201Z,8.67
2023-02-16T17:26:16.875Z,8.68
2023-02-16T17:28:43.237Z,8.69
2023-02-16T17:31:10.488Z,8.69
2023-02-16T17:33:36.870Z,8.71
2023-02-16T17:36:06.038Z,8.71
2023-02-16T17:38:33.331Z,8.71
2023-02-16T17:41:00.285Z,8.72
2023-02-16T17:43:27.739Z,8.72
2023-02-16T17:45:56.089Z,8.73
2023-02-16T17:48:25.189Z,8.72
2023-02-16T17:50:52.132Z,8.73
2023-02-16T17:53:21.244Z,8.73
2023-02-16T17:55:49.330Z,8.73
2023-02-16T17:58:16.465Z,8.75
2023-02-16T18:00:43.983Z,8.75
2023-02-16T18:03:10.552Z,8.75
2023-02-16T18:05:37.668Z,8.75
2023-02-16T18:08:05.425Z,8.75
2023-02-16T18:10:39.834Z,8.76
2023-02-16T18:13:06.852Z,8.75
2023-02-16T18:15:34.054Z,8.75
2023-02-16T18:18:00.537Z,8.75
2023-02-16T18:20:27.430Z,8.75
2023-02-16T18:22:54.363Z,8.76
2023-02-16T18:25:20.771Z,8.77
2023-02-16T18:27:47.540Z,8.77
2023-02-16T18:30:15.540Z,8.77
2023-02-16T18:32:42.595Z,8.78
2023-02-16T18:35:10.686Z,8.78
2023-02-16T18:37:37.162Z,8.79
2023-02-16T18:40:05.020Z,8.78
2023-02-16T18:42:31.379Z,8.79
2023-02-16T18:44:58.033Z,8.80
2023-02-16T18:47:24.472Z,8.79
2023-02-16T18:49:52.356Z,8.81
2023-02-16T18:52:19.508Z,8.81
2023-02-16T18:54:45.910Z,8.80
2023-02-16T18:57:12.340Z,8.80
2023-02-16T18:59:39.030Z,8.82
2023-02-16T19:02:05.457Z,8.82
2023-02-16T19:04:32.012Z,8.82
2023-02-16T19:06:58.501Z,8.82
2023-02-16T19:09:25.593Z,8.83
2023-02-16T19:11:51.965Z,8.83
2023-02-16T19:14:18.875Z,8.84
2023-02-16T19:16:45.799Z,8.84
2023-02-16T19:19:12.253Z,8.83
2023-02-16T19:21:40.116Z,8.85
2023-02-16T19:24:07.872Z,8.86
2023-02-16T19:26:34.262Z,8.84
2023-02-16T19:29:00.661Z,8.86
2023-02-16T19:31:30.001Z,8.85
2023-02-16T19:33:57.927Z,8.86
2023-02-16T19:36:26.179Z,8.86
2023-02-16T19:38:53.382Z,8.88
2023-02-16T19:41:28.273Z,8.89
2023-02-16T19:43:54.919Z,8.89
2023-02-16T19:46:22.214Z,8.89
2023-02-16T19:48:48.621Z,8.90
2023-02-16T19:51:16.306Z,8.90
2023-02-16T19:53:43.783Z,8.89
2023-02-16T19:56:13.717Z,8.90
2023-02-16T19:58:40.183Z,8.91
2023-02-16T20:01:12.166Z,8.90
2023-02-16T20:03:38.995Z,8.92
2023-02-16T20:06:21.896Z,8.93
2023-02-16T20:08:49.998Z,8.93
2023-02-16T20:11:19.108Z,8.94
2023-02-16T20:13:45.913Z,8.94
2023-02-16T20:16:14.094Z,8.95
2023-02-16T20:18:41.153Z,8.96
2023-02-16T20:21:15.994Z,8.95
2023-02-16T20:23:43.514Z,8.96
2023-02-16T20:26:13.052Z,8.97
2023-02-16T20:28:39.954Z,8.97
2023-02-16T20:31:19.501Z,8.99
2023-02-16T20:33:46.405Z,8.99
2023-02-16T20:36:13.064Z,9.00
2023-02-16T20:38:39.783Z,9.01
2023-02-16T20:41:06.456Z,9.02
2023-02-16T20:43:34.089Z,9.03
2023-02-16T20:46:06.544Z,9.03
2023-02-16T20:48:33.706Z,9.06
2023-02-16T20:51:02.942Z,9.06
2023-02-16T20:53:29.907Z,9.07
2023-02-16T20:56:04.230Z,9.06
2023-02-16T20:58:31.727Z,9.07
2023-02-16T21:00:58.313Z,9.09
2023-02-16T21:03:24.760Z,9.10
2023-02-16T21:05:51.200Z,9.09
2023-02-16T21:08:17.727Z,9.11
2023-02-16T21:10:44.149Z,9.10
2023-02-16T21:13:10.536Z,9.12
2023-02-16T21:15:36.899Z,9.12
2023-02-16T21:18:04.928Z,9.12
2023-02-16T21:20:31.559Z,9.14
2023-02-16T21:22:58.037Z,9.15
2023-02-16T21:25:24.914Z,9.17
2023-02-16T21:27:51.296Z,9.15
2023-02-16T21:30:17.816Z,9.16
2023-02-16T21:32:44.270Z,9.16
2023-02-16T21:35:10.741Z,9.17
2023-02-16T21:37:38.588Z,9.18
2023-02-16T21:40:25.115Z,9.17
2023-02-16T21:42:51.662Z,9.19
2023-02-16T21:45:18.359Z,9.19
2023-02-16T21:48:04.857Z,9.18
2023-02-16T21:50:37.314Z,9.19
2023-02-16T21:53:04.759Z,9.20
2023-02-16T21:55:50.306Z,9.19
2023-02-16T21:58:16.999Z,9.19
2023-02-16T22:00:44.013Z,9.19
2023-02-16T22:03:12.378Z,9.21
2023-02-16T22:05:38.766Z,9.20
2023-02-16T22:08:05.361Z,9.22
2023-02-16T22:10:31.809Z,9.21
2023-02-16T22:12:58.202Z,9.21
2023-02-16T22:15:26.019Z,9.22
2023-02-16T22:17:52.526Z,9.20
2023-02-16T22:20:19.345Z,9.21
2023-02-16T22:22:45.726Z,9.19
2023-02-16T22:25:13.293Z,9.19
2023-02-16T22:27:40.569Z,9.21
2023-02-16T22:30:09.613Z,9.19
2023-02-16T22:32:36.050Z,9.22
2023-02-16T22:35:02.554Z,9.21
2023-02-16T22:37:28.981Z,9.22
2023-02-16T22:39:55.353Z,9.22
2023-02-16T22:42:22.534Z,9.21
2023-02-16T22:44:48.962Z,9.21
2023-02-16T22:47:15.419Z,9.20
2023-02-16T22:49:41.757Z,9.20
2023-02-16T22:52:08.587Z,9.19
2023-02-16T22:54:34.903Z,9.19
2023-02-16T22:57:01.248Z,9.19
2023-02-16T22:59:27.572Z,9.20
2023-02-16T23:01:53.998Z,9.18
2023-02-16T23:04:20.386Z,9.19
2023-02-16T23:06:47.043Z,9.19
2023-02-16T23:09:16.831Z,9.18
2023-02-16T23:11:44.421Z,9.19
2023-02-16T23:14:16.408Z,9.19
2023-02-16T23:16:51.411Z,9.19
2023-02-16T23:19:21.308Z,9.20
2023-02-16T23:21:48.771Z,9.20
2023-02-16T23:24:19.304Z,9.20
2023-02-16T23:26:45.968Z,9.21
2023-02-16T23:29:13.488Z,9.21
2023-02-16T23:31:42.151Z,9.22
2023-02-16T23:34:09.228Z,9.21
2023-02-16T23:36:37.102Z,9.21
2023-02-16T23:39:10.806Z,9.21
2023-02-16T23:41:37.549Z,9.21
2023-02-16T23:44:04.910Z,9.21
2023-02-16T23:46:31.905Z,9.21
2023-02-16T23:48:58.579Z,9.21
2023-02-16T23:51:25.042Z,9.21
2023-02-16T23:53:51.525Z,9.21
2023-02-16T23:56:26.651Z,9.21
2023-02-16T23:58:57.116Z,9.22
